Time;durP1;ratioP1;P1;durP2;ratioP2;P2;SDS_P1;SDS_P2;PMS_P1;PMS_P2;Temp;Humidity;BMP_temperature;BMP_pressure;BME280_temperature;BME280_humidity;BME280_pressure;Samples;Min_cycle;Max_cycle;Signal;HPM_P1;HPM_P2
2022/03/05 00:01:06;;;;;;;17.50;11.83;;;7.10;49.70;;;;;;5013592;28;20955;-70
2022/03/05 00:03:34;;;;;;;17.07;12.00;;;7.00;49.80;;;;;;5013762;28;20467;-69
2022/03/05 00:06:02;;;;;;;16.53;11.80;;;7.00;49.90;;;;;;5014850;28;20558;-70
2022/03/05 00:08:29;;;;;;;17.93;10.90;;;7.00;50.00;;;;;;5013483;28;20827;-70
2022/03/05 00:10:56;;;;;;;18.27;12.30;;;7.00;50.20;;;;;;5013530;28;20447;-70
2022/03/05 00:13:23;;;;;;;17.50;12.37;;;7.00;50.50;;;;;;5013676;28;20471;-69
2022/03/05 00:15:51;;;;;;;23.80;12.10;;;6.90;50.50;;;;;;5013480;28;20962;-69
2022/03/05 00:18:17;;;;;;;22.93;13.73;;;6.90;50.70;;;;;;5013406;28;20908;-70
2022/03/05 00:20:46;;;;;;;21.77;13.60;;;6.90;50.90;;;;;;5013751;28;20455;-70
2022/03/05 00:23:16;;;;;;;20.47;11.70;;;6.80;51.00;;;;;;5013351;28;20494;-69
2022/03/05 00:25:43;;;;;;;21.70;14.10;;;6.80;51.20;;;;;;5013141;28;20463;-70
2022/03/05 00:28:10;;;;;;;23.70;12.50;;;6.80;51.30;;;;;;5013530;28;20455;-70
2022/03/05 00:30:37;;;;;;;18.63;12.30;;;6.80;51.40;;;;;;5013418;28;20459;-69
2022/03/05 00:33:04;;;;;;;22.40;13.83;;;6.70;52.00;;;;;;5013487;28;20480;-70
2022/03/05 00:35:32;;;;;;;23.60;13.73;;;6.80;52.00;;;;;;5013200;28;20451;-70
2022/03/05 00:38:00;;;;;;;23.10;14.77;;;6.70;52.20;;;;;;5013550;28;20890;-71
2022/03/05 00:40:28;;;;;;;21.17;13.30;;;6.70;52.30;;;;;;5013163;28;20956;-69
2022/03/05 00:42:54;;;;;;;21.87;13.90;;;6.70;52.40;;;;;;5013475;28;20448;-69
2022/03/05 00:45:21;;;;;;;23.47;13.33;;;6.60;52.40;;;;;;5013371;28;20475;-69
2022/03/05 00:47:48;;;;;;;23.83;13.63;;;6.60;52.90;;;;;;5013429;28;20451;-70
2022/03/05 00:50:15;;;;;;;24.60;14.37;;;6.60;53.00;;;;;;5013415;28;20796;-70
2022/03/05 00:52:41;;;;;;;24.80;13.93;;;6.50;53.10;;;;;;5013229;28;20444;-69
2022/03/05 00:55:09;;;;;;;24.17;13.17;;;6.50;53.20;;;;;;5013118;28;20502;-69
2022/03/05 00:57:37;;;;;;;27.93;13.60;;;6.50;53.20;;;;;;5013381;28;20444;-69
2022/03/05 01:00:07;;;;;;;23.00;14.30;;;6.50;53.30;;;;;;5013382;28;20534;-70
2022/03/05 01:02:33;;;;;;;28.50;15.90;;;6.40;53.70;;;;;;5012980;28;20451;-69
2022/03/05 01:05:00;;;;;;;24.70;15.33;;;6.40;53.70;;;;;;5013078;28;20483;-70
2022/03/05 01:07:27;;;;;;;26.17;14.07;;;6.40;53.60;;;;;;5013154;28;20883;-70
2022/03/05 01:09:53;;;;;;;29.90;14.60;;;6.50;53.80;;;;;;5013251;28;20447;-70
2022/03/05 01:12:21;;;;;;;30.50;16.53;;;6.40;53.90;;;;;;5013201;28;20455;-69
2022/03/05 01:14:50;;;;;;;26.70;14.60;;;6.40;53.90;;;;;;5013109;28;20529;-70
2022/03/05 01:17:18;;;;;;;25.97;14.93;;;6.40;54.00;;;;;;5013121;28;20451;-71
2022/03/05 01:19:45;;;;;;;28.67;16.00;;;6.40;54.10;;;;;;5012802;28;20454;-71
2022/03/05 01:22:12;;;;;;;26.27;14.53;;;6.40;54.20;;;;;;5013881;28;20851;-70
2022/03/05 01:24:39;;;;;;;31.47;16.50;;;6.40;54.20;;;;;;5013580;28;20495;-70
2022/03/05 01:27:06;;;;;;;33.90;15.40;;;6.30;54.10;;;;;;5014133;28;20432;-70
2022/03/05 01:29:32;;;;;;;29.77;16.40;;;6.30;54.30;;;;;;5014302;28;20462;-70
2022/03/05 01:32:00;;;;;;;30.37;17.70;;;6.30;54.40;;;;;;5014231;28;20526;-70
2022/03/05 01:34:27;;;;;;;27.97;15.77;;;6.30;54.50;;;;;;5014175;28;20471;-70
2022/03/05 01:36:54;;;;;;;31.50;17.73;;;6.30;54.50;;;;;;5014250;28;20456;-70
2022/03/05 01:39:20;;;;;;;30.03;17.73;;;6.30;54.60;;;;;;5016319;28;20821;-70
2022/03/05 01:41:51;;;;;;;33.20;17.00;;;6.20;54.30;;;;;;5017693;28;20454;-70
2022/03/05 01:44:20;;;;;;;33.80;18.00;;;6.20;55.00;;;;;;5017590;28;20533;-70
2022/03/05 01:46:46;;;;;;;31.30;17.30;;;6.20;54.80;;;;;;5017470;28;20454;-70
2022/03/05 01:49:15;;;;;;;26.10;15.40;;;6.20;54.90;;;;;;5017835;28;20447;-70
2022/03/05 01:51:43;;;;;;;28.67;15.93;;;6.10;55.10;;;;;;5017411;28;20455;-70
2022/03/05 01:54:10;;;;;;;35.90;16.87;;;6.10;55.30;;;;;;5017527;28;20470;-70
2022/03/05 01:56:39;;;;;;;30.50;16.60;;;6.00;55.30;;;;;;5017747;28;20439;-70
2022/03/05 01:59:06;;;;;;;31.00;16.80;;;6.00;55.70;;;;;;5018337;28;20455;-70
2022/03/05 02:01:33;;;;;;;29.07;16.00;;;6.00;55.70;;;;;;5018821;28;20451;-70
2022/03/05 02:04:00;;;;;;;31.63;16.67;;;5.90;55.90;;;;;;5018617;28;20478;-70
2022/03/05 02:06:28;;;;;;;32.17;16.70;;;5.90;55.80;;;;;;5017504;28;20486;-70
2022/03/05 02:08:57;;;;;;;33.00;17.50;;;6.00;55.70;;;;;;5018329;28;20447;-70
2022/03/05 02:11:24;;;;;;;34.20;16.10;;;6.00;55.80;;;;;;5028144;28;20447;-69
2022/03/05 02:13:50;;;;;;;35.97;19.20;;;5.90;55.60;;;;;;5025589;28;20538;-69
2022/03/05 02:16:18;;;;;;;31.10;16.63;;;6.00;55.60;;;;;;5021661;28;20467;-69
2022/03/05 02:18:46;;;;;;;30.23;16.20;;;5.90;55.70;;;;;;5018487;28;20459;-69
2022/03/05 02:21:14;;;;;;;28.90;16.50;;;6.00;55.90;;;;;;5018376;28;20470;-69
2022/03/05 02:23:41;;;;;;;34.20;18.97;;;5.90;56.00;;;;;;5016800;28;20494;-70
2022/03/05 02:26:08;;;;;;;37.90;18.30;;;5.90;56.00;;;;;;5016866;28;20483;-70
2022/03/05 02:28:36;;;;;;;31.70;17.80;;;5.90;56.10;;;;;;5016454;28;20448;-70
2022/03/05 02:31:04;;;;;;;30.20;17.40;;;5.90;56.30;;;;;;5016428;28;20979;-70
2022/03/05 02:33:31;;;;;;;29.80;16.47;;;5.90;56.50;;;;;;5016529;28;20467;-70
2022/03/05 02:35:58;;;;;;;34.10;17.93;;;5.80;56.50;;;;;;5016393;28;20463;-70
2022/03/05 02:38:26;;;;;;;37.50;19.30;;;5.80;56.70;;;;;;5016366;28;20458;-70
2022/03/05 02:40:53;;;;;;;37.47;18.07;;;5.80;56.80;;;;;;5016556;28;20440;-70
2022/03/05 02:43:22;;;;;;;34.53;18.67;;;5.80;56.80;;;;;;5017074;28;20475;-70
2022/03/05 02:45:49;;;;;;;31.80;17.60;;;5.80;56.80;;;;;;5016474;28;20835;-70
2022/03/05 02:48:18;;;;;;;36.80;18.60;;;5.80;56.80;;;;;;5015904;28;20862;-70
2022/03/05 02:50:46;;;;;;;37.53;18.53;;;5.70;56.90;;;;;;5015853;28;20451;-70
2022/03/05 02:53:13;;;;;;;31.93;18.07;;;5.70;57.10;;;;;;5016255;28;20483;-70
2022/03/05 02:55:42;;;;;;;31.77;17.53;;;5.70;57.20;;;;;;5016463;28;20459;-70
2022/03/05 02:58:09;;;;;;;33.73;17.67;;;5.70;57.40;;;;;;5015849;28;20966;-70
2022/03/05 03:00:37;;;;;;;36.73;18.83;;;5.60;57.60;;;;;;5016069;28;20455;-70
2022/03/05 03:03:03;;;;;;;38.20;19.97;;;5.60;57.80;;;;;;5015212;28;20448;-70
2022/03/05 03:05:30;;;;;;;35.70;18.23;;;5.60;57.70;;;;;;5016088;28;20487;-70
2022/03/05 03:07:57;;;;;;;38.40;18.87;;;5.60;57.60;;;;;;5015753;28;20456;-70
2022/03/05 03:10:24;;;;;;;39.00;18.63;;;5.60;57.60;;;;;;5015876;28;20455;-70
2022/03/05 03:12:52;;;;;;;35.20;19.00;;;5.60;57.60;;;;;;5016008;28;20454;-70
2022/03/05 03:15:19;;;;;;;39.47;18.20;;;5.60;57.60;;;;;;5016034;28;20447;-70
2022/03/05 03:17:47;;;;;;;34.10;19.37;;;5.60;57.70;;;;;;5015680;28;20451;-70
2022/03/05 03:20:15;;;;;;;37.70;19.50;;;5.60;57.70;;;;;;5015739;28;20447;-70
2022/03/05 03:22:42;;;;;;;36.90;19.03;;;5.60;57.80;;;;;;5015428;28;20451;-70
2022/03/05 03:25:10;;;;;;;33.70;17.63;;;5.50;57.70;;;;;;5015561;28;20499;-70
2022/03/05 03:27:37;;;;;;;36.17;17.50;;;5.50;57.80;;;;;;5014964;28;20889;-70
2022/03/05 03:30:07;;;;;;;36.63;18.70;;;5.50;57.90;;;;;;5014545;28;20451;-69
2022/03/05 03:32:34;;;;;;;33.57;17.97;;;5.50;58.10;;;;;;5014570;28;20436;-71
2022/03/05 03:35:01;;;;;;;31.93;18.67;;;5.40;58.20;;;;;;5014200;28;20843;-70
2022/03/05 03:37:29;;;;;;;33.30;18.27;;;5.40;58.40;;;;;;5013979;28;20447;-70
2022/03/05 03:39:56;;;;;;;37.63;19.10;;;5.30;58.60;;;;;;5014291;28;20872;-70
2022/03/05 03:42:23;;;;;;;32.70;18.60;;;5.30;58.70;;;;;;5014212;28;20483;-70
2022/03/05 03:44:50;;;;;;;34.60;17.70;;;5.30;58.70;;;;;;5013921;28;20526;-70
2022/03/05 03:47:19;;;;;;;39.40;20.03;;;5.30;58.70;;;;;;5013861;28;20447;-70
2022/03/05 03:49:46;;;;;;;42.30;20.90;;;5.30;58.80;;;;;;5014088;28;20447;-70
2022/03/05 03:52:13;;;;;;;44.50;20.70;;;5.30;58.80;;;;;;5013735;28;20974;-70
2022/03/05 03:54:40;;;;;;;39.27;20.40;;;5.30;58.80;;;;;;5013536;28;20823;-70
2022/03/05 03:57:07;;;;;;;40.97;19.40;;;5.30;59.00;;;;;;5013744;28;20826;-71
2022/03/05 03:59:34;;;;;;;42.00;20.43;;;5.20;59.00;;;;;;5013882;28;20463;-70
2022/03/05 04:02:02;;;;;;;37.03;18.93;;;5.20;59.10;;;;;;5013536;28;20451;-71
2022/03/05 04:04:30;;;;;;;37.87;17.23;;;5.20;59.30;;;;;;5013763;28;20840;-71
2022/03/05 04:09:42;;;;;;;41.03;19.50;;;5.20;59.20;;;;;;5013680;28;20415;-71
2022/03/05 04:12:09;;;;;;;35.53;19.90;;;5.20;59.30;;;;;;5013721;28;20458;-72
2022/03/05 04:14:37;;;;;;;41.03;21.00;;;5.20;59.30;;;;;;5013646;28;20471;-71
2022/03/05 04:17:04;;;;;;;36.53;19.70;;;5.20;59.30;;;;;;5013422;28;20443;-72
2022/03/05 04:19:32;;;;;;;40.53;19.23;;;5.20;59.30;;;;;;5013630;28;20460;-72
2022/03/05 04:21:59;;;;;;;35.07;18.57;;;5.10;59.50;;;;;;5013596;28;20451;-72
2022/03/05 04:24:26;;;;;;;39.33;19.57;;;5.10;59.50;;;;;;5013231;28;20487;-71
2022/03/05 04:26:53;;;;;;;38.30;19.40;;;5.10;59.70;;;;;;5013181;28;20483;-71
2022/03/05 04:29:20;;;;;;;38.67;18.83;;;5.00;59.80;;;;;;5013486;28;20460;-71
2022/03/05 04:31:46;;;;;;;37.50;18.50;;;5.00;60.00;;;;;;5013461;28;20447;-71
2022/03/05 04:34:13;;;;;;;37.13;19.50;;;5.00;60.10;;;;;;5013413;28;20473;-71
2022/03/05 04:36:41;;;;;;;36.90;19.80;;;5.00;60.30;;;;;;5013457;28;20447;-71
2022/03/05 04:39:08;;;;;;;40.17;18.80;;;5.00;60.40;;;;;;5013456;28;20502;-71
2022/03/05 04:41:35;;;;;;;37.40;17.37;;;5.00;60.50;;;;;;5013386;28;20494;-71
2022/03/05 04:44:02;;;;;;;40.93;19.20;;;5.00;60.50;;;;;;5013327;28;20529;-71
2022/03/05 04:46:29;;;;;;;34.37;19.30;;;4.90;60.50;;;;;;5013428;28;20937;-70
2022/03/05 04:48:56;;;;;;;38.57;18.30;;;4.90;60.80;;;;;;5014852;28;20447;-70
2022/03/05 04:51:23;;;;;;;39.50;19.43;;;4.90;60.80;;;;;;5014834;28;20454;-71
2022/03/05 04:53:51;;;;;;;33.57;18.13;;;4.90;60.80;;;;;;5014887;28;20475;-71
2022/03/05 04:56:18;;;;;;;41.70;19.63;;;4.90;60.80;;;;;;5015431;28;20459;-70
2022/03/05 04:58:45;;;;;;;40.07;18.97;;;4.80;61.00;;;;;;5014948;28;20458;-70
2022/03/05 05:01:12;;;;;;;38.53;20.60;;;4.80;61.30;;;;;;5014692;28;20470;-70
2022/03/05 05:03:39;;;;;;;38.57;18.17;;;4.80;61.40;;;;;;5014993;28;20471;-70
2022/03/05 05:06:06;;;;;;;36.80;18.33;;;4.80;61.50;;;;;;5015822;28;20475;-70
2022/03/05 05:08:33;;;;;;;40.63;19.90;;;4.80;61.70;;;;;;5016540;28;20505;-70
2022/03/05 05:11:01;;;;;;;35.77;18.00;;;4.70;62.00;;;;;;5015322;28;20459;-71
2022/03/05 05:13:27;;;;;;;35.90;18.53;;;4.70;62.00;;;;;;5015808;28;20467;-70
2022/03/05 05:15:54;;;;;;;35.40;18.60;;;4.70;62.20;;;;;;5018774;28;20435;-70
2022/03/05 05:18:21;;;;;;;39.00;20.07;;;4.70;62.50;;;;;;5018664;28;20451;-70
2022/03/05 05:20:48;;;;;;;37.50;18.80;;;4.70;62.70;;;;;;5018545;28;20462;-70
2022/03/05 05:23:14;;;;;;;35.37;17.27;;;4.70;62.40;;;;;;5018469;28;20486;-70
2022/03/05 05:25:41;;;;;;;40.77;19.40;;;4.70;62.40;;;;;;5018085;28;20875;-71
2022/03/05 05:28:09;;;;;;;35.67;18.03;;;4.70;62.50;;;;;;5018248;28;20447;-70
2022/03/05 05:30:36;;;;;;;35.73;18.00;;;4.70;62.50;;;;;;5018116;28;20447;-70
2022/03/05 05:33:03;;;;;;;37.70;17.70;;;4.70;62.60;;;;;;5018057;28;20462;-71
2022/03/05 05:35:30;;;;;;;33.10;16.60;;;4.60;62.80;;;;;;5018391;28;20451;-70
2022/03/05 05:37:56;;;;;;;37.13;19.63;;;4.60;62.90;;;;;;5018220;28;20451;-70
2022/03/05 05:40:23;;;;;;;34.93;18.20;;;4.60;63.10;;;;;;5017689;28;20458;-70
2022/03/05 05:42:50;;;;;;;37.90;20.37;;;4.60;63.70;;;;;;5018196;28;20801;-70
2022/03/05 05:45:18;;;;;;;37.37;19.57;;;4.60;62.90;;;;;;5018349;28;20454;-70
2022/03/05 05:47:45;;;;;;;42.40;18.17;;;4.60;63.00;;;;;;5017995;28;20462;-71
2022/03/05 05:50:12;;;;;;;38.93;18.20;;;4.60;63.10;;;;;;5017616;28;20939;-70
2022/03/05 05:52:39;;;;;;;36.13;19.07;;;4.60;63.10;;;;;;5017613;28;20455;-70
2022/03/05 05:55:06;;;;;;;38.57;17.63;;;4.60;62.90;;;;;;5017354;28;20471;-71
2022/03/05 05:57:33;;;;;;;36.37;18.50;;;4.60;62.90;;;;;;5017076;28;20943;-70
2022/03/05 05:59:59;;;;;;;39.27;19.30;;;4.60;63.00;;;;;;5017316;28;20960;-70
2022/03/05 06:02:27;;;;;;;35.50;17.10;;;4.60;63.10;;;;;;5017271;28;20496;-70
2022/03/05 06:04:54;;;;;;;33.13;17.40;;;4.60;63.30;;;;;;5017103;28;20471;-70
2022/03/05 06:07:21;;;;;;;37.10;18.57;;;4.60;63.40;;;;;;5017186;28;20468;-70
2022/03/05 06:09:48;;;;;;;34.70;16.87;;;4.60;63.60;;;;;;5017181;28;20490;-70
2022/03/05 06:12:14;;;;;;;38.93;18.73;;;4.60;63.40;;;;;;5018144;28;20452;-70
2022/03/05 06:14:41;;;;;;;34.67;17.80;;;4.60;63.40;;;;;;5017938;28;20562;-71
2022/03/05 06:17:08;;;;;;;37.90;19.73;;;4.60;63.30;;;;;;5017700;28;20455;-70
2022/03/05 06:19:36;;;;;;;37.50;17.47;;;4.60;63.30;;;;;;5017884;28;20447;-70
2022/03/05 06:22:03;;;;;;;40.30;19.47;;;4.60;63.40;;;;;;5017618;28;20459;-71
2022/03/05 06:24:31;;;;;;;34.60;17.90;;;4.60;63.40;;;;;;5017033;28;20479;-71
2022/03/05 06:26:58;;;;;;;34.73;17.17;;;4.60;63.40;;;;;;5017078;28;20487;-71
2022/03/05 06:29:24;;;;;;;33.50;18.80;;;4.60;63.40;;;;;;5017793;28;20440;-70
2022/03/05 06:31:52;;;;;;;32.67;17.53;;;4.60;63.60;;;;;;5017241;28;20459;-70
2022/03/05 06:34:21;;;;;;;34.47;17.60;;;4.60;63.60;;;;;;5016723;28;20467;-70
2022/03/05 06:36:49;;;;;;;37.77;18.47;;;4.60;63.70;;;;;;5017654;28;20924;-70
2022/03/05 06:39:15;;;;;;;34.40;17.83;;;4.60;63.80;;;;;;5016962;28;20439;-70
2022/03/05 06:41:42;;;;;;;35.10;17.40;;;4.70;63.80;;;;;;5017032;28;20974;-71
2022/03/05 06:44:09;;;;;;;36.57;18.77;;;4.60;63.80;;;;;;5015428;28;20475;-71
2022/03/05 06:46:35;;;;;;;38.33;19.07;;;4.60;63.90;;;;;;5015217;28;20498;-71
2022/03/05 06:49:03;;;;;;;35.77;18.43;;;4.60;64.00;;;;;;5015198;28;20451;-71
2022/03/05 06:51:29;;;;;;;36.20;18.67;;;4.60;64.80;;;;;;5014805;28;20983;-71
2022/03/05 06:53:57;;;;;;;34.13;17.90;;;4.70;64.10;;;;;;5014928;28;20848;-71
2022/03/05 06:56:24;;;;;;;39.93;20.87;;;4.70;64.20;;;;;;5015087;28;20451;-71
2022/03/05 06:58:51;;;;;;;37.50;17.83;;;4.70;64.60;;;;;;5014609;28;20827;-71
2022/03/05 07:01:18;;;;;;;36.30;17.83;;;4.70;64.70;;;;;;5014483;28;20451;-71
2022/03/05 07:03:45;;;;;;;36.93;18.30;;;4.70;64.70;;;;;;5015008;28;20471;-71
2022/03/05 07:06:11;;;;;;;34.57;18.77;;;4.70;64.80;;;;;;5014732;28;20510;-71
2022/03/05 07:08:40;;;;;;;30.90;16.83;;;4.70;65.60;;;;;;5014969;28;20451;-71
2022/03/05 07:11:08;;;;;;;34.73;18.70;;;4.70;64.90;;;;;;5014548;28;20443;-71
2022/03/05 07:13:35;;;;;;;39.93;19.77;;;4.70;64.90;;;;;;5014689;28;20471;-71
2022/03/05 07:16:02;;;;;;;37.27;18.20;;;4.80;65.00;;;;;;5014687;28;20785;-70
2022/03/05 07:18:29;;;;;;;35.40;17.77;;;4.80;64.90;;;;;;5014720;28;20455;-70
2022/03/05 07:20:57;;;;;;;36.93;18.73;;;4.80;64.90;;;;;;5015570;28;20446;-71
2022/03/05 07:23:24;;;;;;;31.20;17.13;;;4.80;65.00;;;;;;5014395;28;20487;-71
2022/03/05 07:25:50;;;;;;;33.93;17.60;;;4.80;64.90;;;;;;5014203;28;20455;-71
2022/03/05 07:28:18;;;;;;;35.13;18.43;;;4.90;65.00;;;;;;5014530;28;20439;-70
2022/03/05 07:30:45;;;;;;;33.27;18.40;;;4.90;64.90;;;;;;5015569;28;20532;-70
2022/03/05 07:33:12;;;;;;;38.67;20.33;;;4.90;65.00;;;;;;5015327;28;20483;-71
2022/03/05 07:35:39;;;;;;;38.47;18.97;;;4.90;65.00;;;;;;5013982;28;20455;-71
2022/03/05 07:38:06;;;;;;;35.63;18.60;;;5.00;65.00;;;;;;5014100;28;20447;-70
2022/03/05 07:40:33;;;;;;;40.60;20.33;;;5.00;64.50;;;;;;5014987;28;20447;-71
2022/03/05 07:42:59;;;;;;;38.07;19.77;;;5.00;64.70;;;;;;5014163;28;20451;-71
2022/03/05 07:45:27;;;;;;;40.73;20.33;;;5.10;64.80;;;;;;5014505;28;20431;-70
2022/03/05 07:47:54;;;;;;;36.37;18.23;;;5.10;64.70;;;;;;5013868;28;20867;-71
2022/03/05 07:50:21;;;;;;;35.40;20.17;;;5.20;64.60;;;;;;5014067;28;20463;-73
2022/03/05 07:52:48;;;;;;;36.77;20.63;;;5.20;64.40;;;;;;5014085;28;20456;-72
2022/03/05 07:55:15;;;;;;;40.73;19.63;;;5.30;64.00;;;;;;5013648;28;21018;-71
2022/03/05 07:57:41;;;;;;;37.43;20.37;;;5.40;64.00;;;;;;5014053;28;20808;-71
2022/03/05 08:00:09;;;;;;;37.40;19.50;;;5.40;63.80;;;;;;5014103;28;20586;-71
2022/03/05 08:02:37;;;;;;;41.53;19.90;;;5.50;63.90;;;;;;5013886;28;20443;-72
2022/03/05 08:05:04;;;;;;;38.73;19.60;;;5.50;64.10;;;;;;5013532;28;21002;-71
2022/03/05 08:07:32;;;;;;;37.90;20.13;;;5.50;63.70;;;;;;5013776;28;20494;-71
2022/03/05 08:09:59;;;;;;;36.80;19.67;;;5.60;63.50;;;;;;5013597;28;20994;-70
2022/03/05 08:12:26;;;;;;;37.90;20.63;;;5.60;63.50;;;;;;5014217;28;20451;-70
2022/03/05 08:14:52;;;;;;;37.27;19.47;;;5.70;63.40;;;;;;5013342;28;21006;-70
2022/03/05 08:17:19;;;;;;;30.67;18.53;;;5.70;63.10;;;;;;5013708;28;20447;-71
2022/03/05 08:19:47;;;;;;;41.43;21.30;;;5.70;62.60;;;;;;5013348;28;20497;-71
2022/03/05 08:22:14;;;;;;;41.90;20.70;;;5.80;62.80;;;;;;5015347;28;20975;-71
2022/03/05 08:24:41;;;;;;;41.77;19.80;;;5.90;62.70;;;;;;5013207;28;20606;-71
2022/03/05 08:27:08;;;;;;;35.17;19.57;;;5.90;62.60;;;;;;5013599;28;20522;-71
2022/03/05 08:29:35;;;;;;;35.40;19.90;;;5.90;62.20;;;;;;5013284;28;20970;-70
2022/03/05 08:32:01;;;;;;;30.43;18.20;;;6.00;63.20;;;;;;5013185;28;20987;-70
2022/03/05 08:34:28;;;;;;;40.87;19.73;;;6.00;62.00;;;;;;5013509;28;20486;-71
2022/03/05 08:36:56;;;;;;;38.03;19.43;;;6.10;62.30;;;;;;5013464;28;20454;-71
2022/03/05 08:39:23;;;;;;;36.60;18.93;;;6.10;61.90;;;;;;5013582;28;20853;-71
2022/03/05 08:41:50;;;;;;;37.13;19.67;;;6.10;62.00;;;;;;5013517;28;20447;-71
2022/03/05 08:44:16;;;;;;;35.13;18.83;;;6.10;61.60;;;;;;5013653;28;20463;-71
2022/03/05 08:46:43;;;;;;;39.10;20.07;;;6.10;61.80;;;;;;5013420;28;20490;-71
2022/03/05 08:49:10;;;;;;;36.60;19.20;;;6.20;62.10;;;;;;5017475;28;20435;-70
2022/03/05 08:51:38;;;;;;;37.37;19.40;;;6.30;61.90;;;;;;5017262;28;20958;-72
2022/03/05 08:54:06;;;;;;;35.70;20.00;;;6.40;61.60;;;;;;5017034;28;20450;-72
2022/03/05 08:56:33;;;;;;;39.03;21.33;;;6.60;62.20;;;;;;5017320;28;20495;-71
2022/03/05 08:58:59;;;;;;;37.30;20.70;;;6.70;61.20;;;;;;5017053;28;20872;-69
2022/03/05 09:01:26;;;;;;;39.70;21.13;;;6.80;60.60;;;;;;5017262;28;20440;-69
2022/03/05 09:03:53;;;;;;;34.47;20.00;;;6.80;60.30;;;;;;5017348;28;20478;-70
2022/03/05 09:06:20;;;;;;;39.67;20.60;;;6.90;60.00;;;;;;5017260;28;20506;-70
2022/03/05 09:08:46;;;;;;;33.77;19.40;;;6.90;59.70;;;;;;5017469;28;20427;-71
2022/03/05 09:11:14;;;;;;;37.40;22.60;;;7.00;59.50;;;;;;5017279;28;20424;-71
2022/03/05 09:13:41;;;;;;;34.60;20.17;;;7.10;59.40;;;;;;5017284;28;20459;-71
2022/03/05 09:16:08;;;;;;;35.40;19.30;;;7.10;59.20;;;;;;5017098;28;20427;-70
2022/03/05 09:18:35;;;;;;;36.30;21.80;;;7.20;59.30;;;;;;5016783;28;20969;-70
2022/03/05 09:21:01;;;;;;;37.17;20.30;;;7.20;59.30;;;;;;5016745;28;20895;-70
2022/03/05 09:23:28;;;;;;;37.87;21.00;;;7.30;59.00;;;;;;5016744;28;20490;-70
2022/03/05 09:25:55;;;;;;;32.30;19.40;;;7.40;59.00;;;;;;5016412;28;20832;-69
2022/03/05 09:28:23;;;;;;;30.90;19.60;;;7.50;58.80;;;;;;5016648;28;20486;-70
2022/03/05 09:30:50;;;;;;;36.10;19.60;;;7.60;58.60;;;;;;5016192;28;20454;-70
2022/03/05 09:33:17;;;;;;;39.55;23.10;;;7.60;58.40;;;;;;5015771;28;20443;-69
2022/03/05 09:35:44;;;;;;;31.40;19.53;;;7.70;58.10;;;;;;5016549;28;20204;-70
2022/03/05 09:38:11;;;;;;;32.83;20.47;;;7.80;57.70;;;;;;5016354;28;20455;-70
2022/03/05 09:40:39;;;;;;;39.60;20.90;;;7.90;57.10;;;;;;5016154;28;20455;-69
2022/03/05 09:43:06;;;;;;;34.97;21.07;;;8.00;57.00;;;;;;5016330;28;20470;-70
2022/03/05 09:45:35;;;;;;;31.57;17.97;;;8.10;57.00;;;;;;5016504;28;20439;-70
2022/03/05 09:48:02;;;;;;;37.20;20.70;;;8.20;57.10;;;;;;5016219;28;20486;-70
2022/03/05 09:50:29;;;;;;;34.47;19.57;;;8.30;56.60;;;;;;5016160;28;20451;-70
2022/03/05 09:52:57;;;;;;;34.83;18.43;;;8.50;56.30;;;;;;5016217;28;20542;-69
2022/03/05 09:55:23;;;;;;;30.03;17.57;;;8.60;56.20;;;;;;5015809;28;20477;-71
2022/03/05 09:57:50;;;;;;;32.20;20.10;;;8.70;55.50;;;;;;5015835;28;21004;-70
2022/03/05 10:00:18;;;;;;;33.37;21.50;;;8.80;55.30;;;;;;5015039;28;20939;-70
2022/03/05 10:02:46;;;;;;;35.07;20.57;;;9.00;54.60;;;;;;5016104;28;20447;-69
2022/03/05 10:05:19;;;;;;;35.30;21.50;;;9.10;53.90;;;;;;5015994;28;20471;-69
2022/03/05 10:08:02;;;;;;;34.93;22.10;;;9.20;53.60;;;;;;5015947;28;20467;-69
2022/03/05 10:10:29;;;;;;;39.20;21.30;;;9.30;53.20;;;;;;5016252;28;20431;-69
2022/03/05 10:12:55;;;;;;;39.33;21.97;;;9.40;52.80;;;;;;5015581;28;20454;-69
2022/03/05 10:15:22;;;;;;;34.50;20.67;;;9.60;52.40;;;;;;5015852;28;20451;-69
2022/03/05 10:17:53;;;;;;;33.63;20.30;;;9.80;52.30;;;;;;5015906;28;20450;-69
2022/03/05 10:20:20;;;;;;;34.00;21.77;;;9.90;51.80;;;;;;5015459;28;20913;-70
2022/03/05 10:23:03;;;;;;;35.63;22.70;;;10.10;50.60;;;;;;5015569;28;20451;-69
2022/03/05 10:25:32;;;;;;;40.43;22.77;;;10.40;49.90;;;;;;5015793;28;20931;-69
2022/03/05 10:28:05;;;;;;;30.97;20.30;;;10.80;48.90;;;;;;5015264;28;20483;-69
2022/03/05 10:30:33;;;;;;;37.77;23.90;;;11.20;47.50;;;;;;5015624;28;20928;-69
2022/03/05 10:33:02;;;;;;;30.90;22.53;;;11.60;46.90;;;;;;5015545;28;20462;-68
2022/03/05 10:35:28;;;;;;;33.10;20.23;;;12.00;46.30;;;;;;5015521;28;20444;-68
2022/03/05 10:37:55;;;;;;;33.67;21.57;;;12.40;45.30;;;;;;5015203;28;20458;-68
2022/03/05 10:40:27;;;;;;;34.80;21.07;;;12.80;44.30;;;;;;5015772;28;20813;-68
2022/03/05 10:42:54;;;;;;;31.80;19.70;;;13.20;43.00;;;;;;5017240;28;20862;-69
2022/03/05 10:45:22;;;;;;;29.07;19.87;;;13.50;42.10;;;;;;5016762;28;20447;-70
2022/03/05 10:47:49;;;;;;;31.10;21.10;;;13.90;41.20;;;;;;5015270;28;20916;-70
2022/03/05 10:50:25;;;;;;;30.40;21.23;;;14.40;40.30;;;;;;5015464;28;20447;-70
2022/03/05 10:52:54;;;;;;;33.73;20.63;;;14.80;39.30;;;;;;5015020;28;20436;-70
2022/03/05 10:55:23;;;;;;;27.53;19.60;;;15.30;38.10;;;;;;5015195;28;20451;-70
2022/03/05 10:58:00;;;;;;;34.73;21.67;;;15.70;37.60;;;;;;5015097;28;20454;-70
2022/03/05 11:00:28;;;;;;;30.43;20.60;;;16.00;36.40;;;;;;5014749;28;20438;-70
2022/03/05 11:02:56;;;;;;;32.13;22.30;;;16.40;36.20;;;;;;5015305;28;20487;-70
2022/03/05 11:05:25;;;;;;;31.07;20.23;;;16.60;35.50;;;;;;5015092;28;20447;-70
2022/03/05 11:07:54;;;;;;;28.17;19.93;;;16.80;34.90;;;;;;5015608;28;20840;-70
2022/03/05 11:10:25;;;;;;;27.27;19.97;;;17.00;34.50;;;;;;5015486;28;20436;-70
2022/03/05 11:12:56;;;;;;;29.27;21.10;;;17.30;34.30;;;;;;5014812;28;20436;-70
2022/03/05 11:15:23;;;;;;;33.80;21.23;;;17.60;33.80;;;;;;5014910;28;20435;-70
2022/03/05 11:17:51;;;;;;;28.60;20.30;;;17.90;32.80;;;;;;5014766;28;20953;-69
2022/03/05 11:20:18;;;;;;;28.50;19.90;;;18.30;32.80;;;;;;5014838;28;20458;-69
2022/03/05 11:22:49;;;;;;;25.53;20.30;;;18.70;31.80;;;;;;5014645;28;20440;-70
2022/03/05 11:25:19;;;;;;;27.57;20.53;;;18.90;30.20;;;;;;5014562;28;20515;-70
2022/03/05 11:27:57;;;;;;;29.50;21.20;;;18.90;30.00;;;;;;5014623;28;20503;-70
2022/03/05 11:30:24;;;;;;;24.37;19.73;;;19.10;30.60;;;;;;5014722;28;20442;-70
2022/03/05 11:32:51;;;;;;;26.57;20.90;;;19.20;30.00;;;;;;5014578;28;20447;-70
2022/03/05 11:35:20;;;;;;;27.47;19.40;;;19.40;29.20;;;;;;5014180;28;20928;-70
2022/03/05 11:37:50;;;;;;;27.77;20.93;;;19.30;29.60;;;;;;5014446;28;20451;-70
2022/03/05 11:40:36;;;;;;;27.60;20.73;;;19.50;30.30;;;;;;5014255;28;20431;-69
2022/03/05 11:43:17;;;;;;;27.07;18.87;;;20.00;29.60;;;;;;5014419;28;20466;-70
2022/03/05 11:45:51;;;;;;;27.07;22.10;;;20.50;29.10;;;;;;5014395;28;20538;-69
2022/03/05 11:48:27;;;;;;;24.90;20.67;;;21.00;27.90;;;;;;5014654;28;20824;-69
2022/03/05 11:50:56;;;;;;;25.20;20.77;;;21.20;27.40;;;;;;5014267;28;20458;-70
2022/03/05 11:53:24;;;;;;;28.03;20.97;;;21.50;26.80;;;;;;5014365;28;20467;-70
2022/03/05 11:55:51;;;;;;;26.57;20.10;;;21.80;25.60;;;;;;5014346;28;20452;-69
2022/03/05 11:58:33;;;;;;;25.30;18.77;;;21.80;26.10;;;;;;5014153;28;20542;-70
2022/03/05 12:01:42;;;;;;;23.50;19.27;;;22.00;25.90;;;;;;5014253;28;20444;-70
2022/03/05 12:04:22;;;;;;;23.67;19.13;;;22.10;25.60;;;;;;5014841;28;20563;-70
2022/03/05 12:06:56;;;;;;;22.53;18.00;;;22.50;26.10;;;;;;5014377;28;20927;-69
2022/03/05 12:09:41;;;;;;;21.30;18.70;;;23.10;25.60;;;;;;5013955;28;20471;-69
2022/03/05 12:12:10;;;;;;;22.87;19.53;;;23.50;24.80;;;;;;5012674;28;20459;-69
2022/03/05 12:15:08;;;;;;;21.13;18.73;;;23.90;24.50;;;;;;5013651;28;20470;-69
2022/03/05 12:17:39;;;;;;;19.23;17.23;;;23.90;23.70;;;;;;5014018;28;20443;-70
2022/03/05 12:20:06;;;;;;;20.20;18.10;;;23.90;23.70;;;;;;5013810;28;20892;-70
2022/03/05 12:22:33;;;;;;;19.93;17.40;;;24.10;23.20;;;;;;5014225;28;20811;-70
2022/03/05 12:25:01;;;;;;;21.00;18.07;;;24.40;23.40;;;;;;5013824;28;20479;-70
2022/03/05 12:27:30;;;;;;;20.97;18.77;;;24.80;23.40;;;;;;5013809;28;20443;-70
2022/03/05 12:29:57;;;;;;;20.50;17.77;;;25.20;22.60;;;;;;5013566;28;20451;-70
2022/03/05 12:32:33;;;;;;;22.00;19.23;;;25.60;22.40;;;;;;5013630;28;20469;-70
2022/03/05 12:35:05;;;;;;;20.57;18.10;;;26.00;22.30;;;;;;5013748;28;20474;-71
2022/03/05 12:37:32;;;;;;;19.57;17.50;;;26.30;21.20;;;;;;5013503;28;20443;-70
2022/03/05 12:40:01;;;;;;;20.40;18.40;;;26.60;21.20;;;;;;5013197;28;20818;-70
2022/03/05 12:42:39;;;;;;;19.20;17.30;;;26.80;20.40;;;;;;5013397;28;20447;-70